Архив погоды в Рославле

Метеограмма Рославль
Понедельник, 24 Июня
Время местн. Темп Ветер Видим Явления Облачность нижн/средн/верх Атм. давл. Влжн Точка росы ВНГО R Сост. почвы Tg s
Напр Скр Прв ур.ст ур.м изм
21:00 +19.6° С 2 - 20 км - переменная облачность 749 769 +0.6 55% +10.4° более 2.5 км 0 - - -
18:00 +23.1° С,С-В 4 - 20 км - переменная облачность 749 768 +0.1 35% +7° более 2.5 км - - - -
15:00 +23.4° С 3 - 20 км - переменная облачность 749 768 +0.2 44% +10.5° 1.5 км - - - -
12:00 +21.8° С 3 - 20 км - переменная облачность 748 768 +0.2 53% +11.9° 1.5 км - - - -
09:00 +19° С-В 3 - 20 км - ясно 748 768 +0.5 67% +12.8° более 2.5 км 0 Влажная (без луж) - -
06:00 +14.4° С 2 - 20 км - переменная облачность 748 768 +0.8 89% +12.6° более 2.5 км - - - -
03:00 +13.9° С 2 - 50 км - переменная облачность 747 767 +0.5 95% +13.1° 600 м - - - -
00:00 +15.3° С 2 - 50 км - преимущественно облачно 747 766 +1.3 96% +14.6° - - - - -
Воскресенье, 23 Июня
Время местн. Темп Ветер Видим Явления Облачность нижн/средн/верх Атм. давл. Влжн Точка росы ВНГО R Сост. почвы Tg s
Напр Скр Прв ур.ст ур.м изм
21:00 +16.6° С 2 - 15 км гроза {ливневые осадки} облачно 745 765 +0.3 95% +15.8° 600 м 30 - - -
18:00 +16.3° С-В 4 - 4.6 км слабая или умеренная гроза с осадками преимущественно облачно 745 765 +0.2 95% +15.5° более 2.5 км - - - -
15:00 +25.9° С,С-В 3 - 20 км - облачно с прояснениями 745 764 -0.6 54% +16° 1 км - - - -
12:00 +24.4° С,С-В 3 - 20 км - преимущественно облачно 745 765 -0.5 63% +16.9° 1 км - - - -
09:00 +20° С-В 2 - 20 км - преимущественно облачно 746 766 +0.1 77% +15.9° 600 м 0 Сухая (без трещин) - -
06:00 +17.5° С-В 3 - 16 км - облачно 746 766 +0.5 93% +16.3° 300 м - - - -
03:00 +16.5° С 1 - 50 км - облачно с прояснениями 745 765 +0.6 92% +15.2° 1.5 км - - - -
00:00 +18.7° С 2 - 50 км - облачно с прояснениями 745 764 +0.7 79% +15° - - - - -
Суббота, 22 Июня
Время местн. Темп Ветер Видим Явления Облачность нижн/средн/верх Атм. давл. Влжн Точка росы ВНГО R Сост. почвы Tg s
Напр Скр Прв ур.ст ур.м изм
21:00 +23.7° С,С-З 3 - 20 км - преимущественно облачно 744 763 +0.7 67% +17.1° - 0 - - -
18:00 +26.3° С-З 4 - 20 км - переменная облачность 743 762 -0.2 61% +18.2° 1 км - - - -
15:00 +27.6° З 1 - 20 км - преимущественно облачно 744 763 -0.2 52% +17° 1 км - - - -
12:00 +26.6° З 2 - 20 км - преимущественно облачно 744 763 +0.5 55% +16.7° 1 км - - - -
09:00 +24.1° Ю 2 - 20 км - облачно с прояснениями 743 762 +0.3 61% +16.2° - 0 Сухая (без трещин) - -
06:00 +19.3° Ю-В 2 - 20 км - преимущественно облачно 743 762 -0.5 80% +15.7° 1 км - - - -
03:00 +19.2° С,С-В 1 - 50 км - облачно с прояснениями 743 763 +1 80% +15.6° 1 км - - - -
00:00 +20.3° Ю-В 2 - 50 км - переменная облачность 742 762 +0.4 76% +16° 1 км - - - -
Пятница, 21 Июня
Время местн. Темп Ветер Видим Явления Облачность нижн/средн/верх Атм. давл. Влжн Точка росы ВНГО R Сост. почвы Tg s
Напр Скр Прв ур.ст ур.м изм
21:00 +25° Ю 2 - 9 км видимость ухудшена из-за дыма преимущественно облачно 742 761 +0.2 46% +12.7° 1 км 0 - - -
18:00 +29.8° Ю 3 - 20 км - переменная облачность 742 761 -1.3 37% +13.7° 1.5 км - - - -